sensor_id;sensor_type;location;lat;lon;timestamp;P1;durP1;ratioP1;P2;durP2;ratioP2
82727;SDS011;72459;50.110;8.750;2024-01-07T00:01:24;4.30;;;2.80;;
82727;SDS011;72459;50.110;8.750;2024-01-07T00:03:50;5.10;;;2.90;;
82727;SDS011;72459;50.110;8.750;2024-01-07T00:06:16;5.35;;;2.72;;
82727;SDS011;72459;50.110;8.750;2024-01-07T00:08:42;5.38;;;2.83;;
82727;SDS011;72459;50.110;8.750;2024-01-07T00:11:08;5.30;;;2.58;;
82727;SDS011;72459;50.110;8.750;2024-01-07T00:13:34;4.13;;;2.38;;
82727;SDS011;72459;50.110;8.750;2024-01-07T00:15:59;5.10;;;3.00;;
82727;SDS011;72459;50.110;8.750;2024-01-07T00:18:25;5.95;;;3.15;;
82727;SDS011;72459;50.110;8.750;2024-01-07T00:20:52;3.83;;;2.45;;
82727;SDS011;72459;50.110;8.750;2024-01-07T00:23:17;4.85;;;2.80;;
82727;SDS011;72459;50.110;8.750;2024-01-07T00:25:43;5.30;;;3.08;;
82727;SDS011;72459;50.110;8.750;2024-01-07T00:28:08;6.43;;;3.20;;
82727;SDS011;72459;50.110;8.750;2024-01-07T00:30:34;5.00;;;2.65;;
82727;SDS011;72459;50.110;8.750;2024-01-07T00:33:00;5.32;;;2.95;;
82727;SDS011;72459;50.110;8.750;2024-01-07T00:35:26;5.55;;;2.75;;
82727;SDS011;72459;50.110;8.750;2024-01-07T00:37:51;6.55;;;2.95;;
82727;SDS011;72459;50.110;8.750;2024-01-07T00:40:18;6.40;;;3.20;;
82727;SDS011;72459;50.110;8.750;2024-01-07T00:42:43;5.47;;;2.25;;
82727;SDS011;72459;50.110;8.750;2024-01-07T00:45:09;6.03;;;3.03;;
82727;SDS011;72459;50.110;8.750;2024-01-07T00:47:34;4.65;;;2.83;;
82727;SDS011;72459;50.110;8.750;2024-01-07T00:50:00;4.90;;;2.80;;
82727;SDS011;72459;50.110;8.750;2024-01-07T00:52:25;5.70;;;2.93;;
82727;SDS011;72459;50.110;8.750;2024-01-07T00:54:50;5.30;;;2.80;;
82727;SDS011;72459;50.110;8.750;2024-01-07T00:57:16;5.28;;;2.55;;
82727;SDS011;72459;50.110;8.750;2024-01-07T00:59:41;5.55;;;2.95;;
82727;SDS011;72459;50.110;8.750;2024-01-07T01:02:07;4.88;;;2.72;;
82727;SDS011;72459;50.110;8.750;2024-01-07T01:04:32;5.03;;;2.53;;
82727;SDS011;72459;50.110;8.750;2024-01-07T01:06:57;5.82;;;2.60;;
82727;SDS011;72459;50.110;8.750;2024-01-07T01:09:23;6.13;;;2.63;;
82727;SDS011;72459;50.110;8.750;2024-01-07T01:11:48;5.68;;;2.50;;
82727;SDS011;72459;50.110;8.750;2024-01-07T01:14:15;4.72;;;2.47;;
82727;SDS011;72459;50.110;8.750;2024-01-07T01:16:40;5.53;;;2.58;;
82727;SDS011;72459;50.110;8.750;2024-01-07T01:19:06;3.90;;;2.30;;
82727;SDS011;72459;50.110;8.750;2024-01-07T01:21:31;4.03;;;2.40;;
82727;SDS011;72459;50.110;8.750;2024-01-07T01:23:56;4.70;;;2.33;;
82727;SDS011;72459;50.110;8.750;2024-01-07T01:26:22;4.47;;;2.50;;
82727;SDS011;72459;50.110;8.750;2024-01-07T01:28:48;5.03;;;2.77;;
82727;SDS011;72459;50.110;8.750;2024-01-07T01:31:13;4.28;;;2.35;;
82727;SDS011;72459;50.110;8.750;2024-01-07T01:33:39;4.70;;;2.55;;
82727;SDS011;72459;50.110;8.750;2024-01-07T01:36:05;5.75;;;2.58;;
82727;SDS011;72459;50.110;8.750;2024-01-07T01:38:31;3.85;;;1.83;;
82727;SDS011;72459;50.110;8.750;2024-01-07T01:40:57;4.65;;;2.40;;
82727;SDS011;72459;50.110;8.750;2024-01-07T01:43:26;4.00;;;1.95;;
82727;SDS011;72459;50.110;8.750;2024-01-07T01:45:53;4.03;;;2.33;;
82727;SDS011;72459;50.110;8.750;2024-01-07T01:48:19;4.63;;;2.40;;
82727;SDS011;72459;50.110;8.750;2024-01-07T01:50:45;4.82;;;2.47;;
82727;SDS011;72459;50.110;8.750;2024-01-07T01:53:12;3.65;;;1.83;;
82727;SDS011;72459;50.110;8.750;2024-01-07T01:55:38;3.65;;;2.08;;
82727;SDS011;72459;50.110;8.750;2024-01-07T01:58:03;4.22;;;2.00;;
82727;SDS011;72459;50.110;8.750;2024-01-07T02:00:29;3.75;;;2.03;;
82727;SDS011;72459;50.110;8.750;2024-01-07T02:02:56;3.70;;;1.85;;
82727;SDS011;72459;50.110;8.750;2024-01-07T02:05:21;5.18;;;2.30;;
82727;SDS011;72459;50.110;8.750;2024-01-07T02:07:47;3.55;;;1.90;;
82727;SDS011;72459;50.110;8.750;2024-01-07T02:10:14;4.78;;;2.25;;
82727;SDS011;72459;50.110;8.750;2024-01-07T02:12:39;3.83;;;2.15;;
82727;SDS011;72459;50.110;8.750;2024-01-07T02:15:05;4.40;;;1.75;;
82727;SDS011;72459;50.110;8.750;2024-01-07T02:17:30;3.50;;;1.88;;
82727;SDS011;72459;50.110;8.750;2024-01-07T02:19:56;3.13;;;1.67;;
82727;SDS011;72459;50.110;8.750;2024-01-07T02:22:22;4.20;;;2.30;;
82727;SDS011;72459;50.110;8.750;2024-01-07T02:24:47;3.55;;;2.20;;
82727;SDS011;72459;50.110;8.750;2024-01-07T02:27:13;3.35;;;1.80;;
82727;SDS011;72459;50.110;8.750;2024-01-07T02:29:39;4.50;;;2.08;;
82727;SDS011;72459;50.110;8.750;2024-01-07T02:32:04;5.97;;;2.20;;
82727;SDS011;72459;50.110;8.750;2024-01-07T02:34:30;3.40;;;2.00;;
82727;SDS011;72459;50.110;8.750;2024-01-07T02:36:56;3.97;;;2.17;;
82727;SDS011;72459;50.110;8.750;2024-01-07T02:39:21;4.00;;;2.03;;
82727;SDS011;72459;50.110;8.750;2024-01-07T02:41:47;4.70;;;2.40;;
82727;SDS011;72459;50.110;8.750;2024-01-07T02:44:13;4.57;;;2.10;;
82727;SDS011;72459;50.110;8.750;2024-01-07T02:46:38;4.00;;;2.10;;
82727;SDS011;72459;50.110;8.750;2024-01-07T02:49:04;4.83;;;2.47;;
82727;SDS011;72459;50.110;8.750;2024-01-07T02:51:29;4.57;;;2.33;;
82727;SDS011;72459;50.110;8.750;2024-01-07T02:53:55;3.50;;;1.80;;
82727;SDS011;72459;50.110;8.750;2024-01-07T02:56:20;4.30;;;2.00;;
82727;SDS011;72459;50.110;8.750;2024-01-07T02:58:46;3.80;;;2.00;;
82727;SDS011;72459;50.110;8.750;2024-01-07T03:01:11;4.85;;;2.40;;
82727;SDS011;72459;50.110;8.750;2024-01-07T03:03:37;5.65;;;2.30;;
82727;SDS011;72459;50.110;8.750;2024-01-07T03:06:02;5.07;;;2.85;;
82727;SDS011;72459;50.110;8.750;2024-01-07T03:08:28;4.63;;;2.03;;
82727;SDS011;72459;50.110;8.750;2024-01-07T03:10:53;5.13;;;2.75;;
82727;SDS011;72459;50.110;8.750;2024-01-07T03:13:19;4.47;;;2.30;;
82727;SDS011;72459;50.110;8.750;2024-01-07T03:15:44;5.50;;;2.50;;
82727;SDS011;72459;50.110;8.750;2024-01-07T03:18:10;5.97;;;2.63;;
82727;SDS011;72459;50.110;8.750;2024-01-07T03:20:35;5.38;;;2.58;;
82727;SDS011;72459;50.110;8.750;2024-01-07T03:23:01;5.95;;;2.50;;
82727;SDS011;72459;50.110;8.750;2024-01-07T03:25:26;5.85;;;2.55;;
82727;SDS011;72459;50.110;8.750;2024-01-07T03:27:52;5.30;;;2.47;;
82727;SDS011;72459;50.110;8.750;2024-01-07T03:30:17;6.32;;;2.85;;
82727;SDS011;72459;50.110;8.750;2024-01-07T03:32:42;5.20;;;2.30;;
82727;SDS011;72459;50.110;8.750;2024-01-07T03:35:08;4.63;;;2.60;;
82727;SDS011;72459;50.110;8.750;2024-01-07T03:37:34;4.90;;;2.70;;
82727;SDS011;72459;50.110;8.750;2024-01-07T03:40:00;3.92;;;1.95;;
82727;SDS011;72459;50.110;8.750;2024-01-07T03:42:25;5.15;;;2.47;;
82727;SDS011;72459;50.110;8.750;2024-01-07T03:44:51;5.35;;;2.70;;
82727;SDS011;72459;50.110;8.750;2024-01-07T03:47:16;4.22;;;2.65;;
82727;SDS011;72459;50.110;8.750;2024-01-07T03:49:41;4.90;;;2.65;;
82727;SDS011;72459;50.110;8.750;2024-01-07T03:52:08;6.05;;;2.70;;
82727;SDS011;72459;50.110;8.750;2024-01-07T03:54:34;5.20;;;2.72;;
82727;SDS011;72459;50.110;8.750;2024-01-07T03:56:59;5.65;;;2.70;;
82727;SDS011;72459;50.110;8.750;2024-01-07T03:59:25;4.45;;;2.33;;
82727;SDS011;72459;50.110;8.750;2024-01-07T04:01:53;4.68;;;2.47;;
82727;SDS011;72459;50.110;8.750;2024-01-07T04:04:19;5.47;;;2.72;;
82727;SDS011;72459;50.110;8.750;2024-01-07T04:06:44;6.00;;;3.10;;
82727;SDS011;72459;50.110;8.750;2024-01-07T04:09:10;6.18;;;2.50;;
82727;SDS011;72459;50.110;8.750;2024-01-07T04:11:41;5.20;;;2.72;;
82727;SDS011;72459;50.110;8.750;2024-01-07T04:14:08;5.18;;;2.72;;
82727;SDS011;72459;50.110;8.750;2024-01-07T04:16:34;4.65;;;2.65;;
82727;SDS011;72459;50.110;8.750;2024-01-07T04:19:00;5.68;;;2.70;;
82727;SDS011;72459;50.110;8.750;2024-01-07T04:21:25;6.13;;;2.65;;
82727;SDS011;72459;50.110;8.750;2024-01-07T04:23:50;6.85;;;3.53;;
82727;SDS011;72459;50.110;8.750;2024-01-07T04:26:16;6.65;;;2.75;;
82727;SDS011;72459;50.110;8.750;2024-01-07T04:28:43;6.40;;;3.08;;
82727;SDS011;72459;50.110;8.750;2024-01-07T04:31:09;6.85;;;3.38;;
82727;SDS011;72459;50.110;8.750;2024-01-07T04:33:34;8.23;;;3.47;;
82727;SDS011;72459;50.110;8.750;2024-01-07T04:36:01;7.50;;;4.22;;
82727;SDS011;72459;50.110;8.750;2024-01-07T04:38:31;7.82;;;3.92;;
82727;SDS011;72459;50.110;8.750;2024-01-07T04:40:56;7.75;;;3.95;;
82727;SDS011;72459;50.110;8.750;2024-01-07T04:43:22;8.50;;;4.13;;
82727;SDS011;72459;50.110;8.750;2024-01-07T04:45:49;8.65;;;4.45;;
82727;SDS011;72459;50.110;8.750;2024-01-07T04:48:14;11.10;;;5.38;;
82727;SDS011;72459;50.110;8.750;2024-01-07T04:50:40;12.10;;;5.47;;
82727;SDS011;72459;50.110;8.750;2024-01-07T04:53:09;10.75;;;5.13;;
82727;SDS011;72459;50.110;8.750;2024-01-07T04:55:34;9.20;;;4.40;;
82727;SDS011;72459;50.110;8.750;2024-01-07T04:58:00;10.95;;;5.20;;
82727;SDS011;72459;50.110;8.750;2024-01-07T05:00:26;9.95;;;5.00;;
82727;SDS011;72459;50.110;8.750;2024-01-07T05:02:51;9.73;;;5.10;;
82727;SDS011;72459;50.110;8.750;2024-01-07T05:05:17;9.68;;;5.20;;
82727;SDS011;72459;50.110;8.750;2024-01-07T05:07:42;9.90;;;5.05;;
82727;SDS011;72459;50.110;8.750;2024-01-07T05:10:07;11.10;;;5.47;;
82727;SDS011;72459;50.110;8.750;2024-01-07T05:12:33;12.52;;;6.20;;
82727;SDS011;72459;50.110;8.750;2024-01-07T05:14:58;11.25;;;5.93;;
82727;SDS011;72459;50.110;8.750;2024-01-07T05:17:24;11.82;;;6.10;;
82727;SDS011;72459;50.110;8.750;2024-01-07T05:19:50;9.48;;;5.45;;
82727;SDS011;72459;50.110;8.750;2024-01-07T05:22:15;12.30;;;6.10;;
82727;SDS011;72459;50.110;8.750;2024-01-07T05:24:41;8.98;;;5.05;;
82727;SDS011;72459;50.110;8.750;2024-01-07T05:27:06;9.70;;;5.38;;
82727;SDS011;72459;50.110;8.750;2024-01-07T05:29:32;8.02;;;4.88;;
82727;SDS011;72459;50.110;8.750;2024-01-07T05:32:00;8.93;;;4.97;;
82727;SDS011;72459;50.110;8.750;2024-01-07T05:34:28;9.50;;;4.70;;
82727;SDS011;72459;50.110;8.750;2024-01-07T05:36:53;8.82;;;4.80;;
82727;SDS011;72459;50.110;8.750;2024-01-07T05:39:19;7.63;;;4.57;;
82727;SDS011;72459;50.110;8.750;2024-01-07T05:41:44;8.43;;;4.65;;
82727;SDS011;72459;50.110;8.750;2024-01-07T05:44:11;8.20;;;4.63;;
82727;SDS011;72459;50.110;8.750;2024-01-07T05:46:40;7.38;;;4.78;;
82727;SDS011;72459;50.110;8.750;2024-01-07T05:49:06;8.52;;;4.30;;
82727;SDS011;72459;50.110;8.750;2024-01-07T05:51:32;6.63;;;3.95;;
82727;SDS011;72459;50.110;8.750;2024-01-07T05:53:57;7.47;;;4.32;;
82727;SDS011;72459;50.110;8.750;2024-01-07T05:56:22;6.43;;;3.75;;
82727;SDS011;72459;50.110;8.750;2024-01-07T05:58:48;6.60;;;4.22;;
82727;SDS011;72459;50.110;8.750;2024-01-07T06:01:18;7.03;;;3.50;;
82727;SDS011;72459;50.110;8.750;2024-01-07T06:03:45;8.10;;;4.38;;
82727;SDS011;72459;50.110;8.750;2024-01-07T06:06:12;8.88;;;4.25;;
82727;SDS011;72459;50.110;8.750;2024-01-07T06:08:38;7.88;;;4.07;;
82727;SDS011;72459;50.110;8.750;2024-01-07T06:11:03;7.20;;;3.90;;
82727;SDS011;72459;50.110;8.750;2024-01-07T06:13:29;10.20;;;4.30;;
82727;SDS011;72459;50.110;8.750;2024-01-07T06:15:54;9.03;;;4.40;;
82727;SDS011;72459;50.110;8.750;2024-01-07T06:18:19;8.57;;;4.35;;
82727;SDS011;72459;50.110;8.750;2024-01-07T06:20:45;9.73;;;4.60;;
82727;SDS011;72459;50.110;8.750;2024-01-07T06:23:10;9.70;;;5.00;;
82727;SDS011;72459;50.110;8.750;2024-01-07T06:25:35;8.40;;;4.68;;
82727;SDS011;72459;50.110;8.750;2024-01-07T06:28:01;10.13;;;5.27;;
82727;SDS011;72459;50.110;8.750;2024-01-07T06:30:28;9.00;;;5.15;;
82727;SDS011;72459;50.110;8.750;2024-01-07T06:32:53;9.50;;;5.37;;
82727;SDS011;72459;50.110;8.750;2024-01-07T06:35:18;11.55;;;5.10;;
82727;SDS011;72459;50.110;8.750;2024-01-07T06:37:44;10.50;;;5.50;;
82727;SDS011;72459;50.110;8.750;2024-01-07T06:40:10;11.30;;;4.72;;
82727;SDS011;72459;50.110;8.750;2024-01-07T06:42:36;12.10;;;6.03;;
82727;SDS011;72459;50.110;8.750;2024-01-07T06:45:03;11.07;;;5.15;;
82727;SDS011;72459;50.110;8.750;2024-01-07T06:47:29;11.00;;;5.80;;
82727;SDS011;72459;50.110;8.750;2024-01-07T06:49:54;11.35;;;5.15;;
82727;SDS011;72459;50.110;8.750;2024-01-07T06:52:19;9.50;;;4.28;;
82727;SDS011;72459;50.110;8.750;2024-01-07T06:54:46;10.32;;;5.22;;
82727;SDS011;72459;50.110;8.750;2024-01-07T06:57:11;9.65;;;4.53;;
82727;SDS011;72459;50.110;8.750;2024-01-07T06:59:37;9.70;;;5.03;;
82727;SDS011;72459;50.110;8.750;2024-01-07T07:02:02;11.23;;;5.20;;
82727;SDS011;72459;50.110;8.750;2024-01-07T07:04:28;8.52;;;5.20;;
82727;SDS011;72459;50.110;8.750;2024-01-07T07:06:53;10.00;;;5.70;;
82727;SDS011;72459;50.110;8.750;2024-01-07T07:09:18;11.75;;;5.38;;
82727;SDS011;72459;50.110;8.750;2024-01-07T07:11:44;9.65;;;5.68;;
82727;SDS011;72459;50.110;8.750;2024-01-07T07:14:09;13.57;;;6.65;;
82727;SDS011;72459;50.110;8.750;2024-01-07T07:16:34;12.35;;;6.82;;
82727;SDS011;72459;50.110;8.750;2024-01-07T07:19:00;10.48;;;5.82;;
82727;SDS011;72459;50.110;8.750;2024-01-07T07:21:25;13.00;;;6.63;;
82727;SDS011;72459;50.110;8.750;2024-01-07T07:23:52;11.43;;;6.25;;
82727;SDS011;72459;50.110;8.750;2024-01-07T07:26:18;13.68;;;7.18;;
82727;SDS011;72459;50.110;8.750;2024-01-07T07:28:43;13.68;;;7.28;;
82727;SDS011;72459;50.110;8.750;2024-01-07T07:31:10;13.03;;;6.70;;
82727;SDS011;72459;50.110;8.750;2024-01-07T07:33:38;10.32;;;5.57;;
82727;SDS011;72459;50.110;8.750;2024-01-07T07:36:03;12.27;;;6.43;;
82727;SDS011;72459;50.110;8.750;2024-01-07T07:38:29;12.07;;;6.15;;
82727;SDS011;72459;50.110;8.750;2024-01-07T07:40:54;11.18;;;6.03;;
82727;SDS011;72459;50.110;8.750;2024-01-07T07:43:20;12.30;;;5.97;;
82727;SDS011;72459;50.110;8.750;2024-01-07T07:45:46;12.35;;;5.90;;
82727;SDS011;72459;50.110;8.750;2024-01-07T07:48:11;11.00;;;6.03;;
82727;SDS011;72459;50.110;8.750;2024-01-07T07:50:36;10.60;;;5.60;;
82727;SDS011;72459;50.110;8.750;2024-01-07T07:53:02;12.27;;;5.70;;
82727;SDS011;72459;50.110;8.750;2024-01-07T07:55:27;12.10;;;6.05;;
82727;SDS011;72459;50.110;8.750;2024-01-07T07:57:53;9.63;;;4.93;;
82727;SDS011;72459;50.110;8.750;2024-01-07T08:00:19;8.93;;;5.20;;
82727;SDS011;72459;50.110;8.750;2024-01-07T08:02:44;11.75;;;5.60;;
82727;SDS011;72459;50.110;8.750;2024-01-07T08:05:10;12.35;;;6.10;;
82727;SDS011;72459;50.110;8.750;2024-01-07T08:07:35;10.07;;;5.63;;
82727;SDS011;72459;50.110;8.750;2024-01-07T08:10:00;11.37;;;5.83;;
82727;SDS011;72459;50.110;8.750;2024-01-07T08:12:26;10.47;;;5.77;;
82727;SDS011;72459;50.110;8.750;2024-01-07T08:14:51;15.93;;;6.60;;
82727;SDS011;72459;50.110;8.750;2024-01-07T08:17:16;11.57;;;6.43;;
82727;SDS011;72459;50.110;8.750;2024-01-07T08:19:42;10.23;;;5.47;;
82727;SDS011;72459;50.110;8.750;2024-01-07T08:22:07;11.10;;;5.25;;
82727;SDS011;72459;50.110;8.750;2024-01-07T08:24:34;10.55;;;5.18;;
82727;SDS011;72459;50.110;8.750;2024-01-07T08:26:59;9.23;;;4.97;;
82727;SDS011;72459;50.110;8.750;2024-01-07T08:29:26;9.02;;;5.03;;
82727;SDS011;72459;50.110;8.750;2024-01-07T08:31:51;8.13;;;4.85;;
82727;SDS011;72459;50.110;8.750;2024-01-07T08:34:17;8.00;;;5.05;;
82727;SDS011;72459;50.110;8.750;2024-01-07T08:36:42;7.55;;;4.63;;
82727;SDS011;72459;50.110;8.750;2024-01-07T08:39:07;7.63;;;4.47;;
82727;SDS011;72459;50.110;8.750;2024-01-07T08:41:33;8.02;;;4.75;;
82727;SDS011;72459;50.110;8.750;2024-01-07T08:43:58;10.65;;;5.35;;
82727;SDS011;72459;50.110;8.750;2024-01-07T08:46:24;9.93;;;5.80;;
82727;SDS011;72459;50.110;8.750;2024-01-07T08:48:50;9.83;;;5.03;;
82727;SDS011;72459;50.110;8.750;2024-01-07T08:51:16;8.52;;;5.07;;
82727;SDS011;72459;50.110;8.750;2024-01-07T08:53:41;8.70;;;5.05;;
82727;SDS011;72459;50.110;8.750;2024-01-07T08:56:07;7.38;;;4.43;;
82727;SDS011;72459;50.110;8.750;2024-01-07T08:58:33;8.52;;;4.47;;
82727;SDS011;72459;50.110;8.750;2024-01-07T09:00:59;8.50;;;4.78;;
82727;SDS011;72459;50.110;8.750;2024-01-07T09:03:24;8.60;;;4.57;;
82727;SDS011;72459;50.110;8.750;2024-01-07T09:05:50;7.13;;;4.32;;
82727;SDS011;72459;50.110;8.750;2024-01-07T09:08:15;7.65;;;4.50;;
82727;SDS011;72459;50.110;8.750;2024-01-07T09:10:40;8.87;;;5.00;;
82727;SDS011;72459;50.110;8.750;2024-01-07T09:13:06;9.15;;;4.80;;
82727;SDS011;72459;50.110;8.750;2024-01-07T09:15:31;10.13;;;5.60;;
82727;SDS011;72459;50.110;8.750;2024-01-07T09:17:57;9.73;;;4.88;;
82727;SDS011;72459;50.110;8.750;2024-01-07T09:20:22;10.07;;;5.72;;
82727;SDS011;72459;50.110;8.750;2024-01-07T09:22:48;11.07;;;5.75;;
82727;SDS011;72459;50.110;8.750;2024-01-07T09:25:14;10.38;;;5.28;;
82727;SDS011;72459;50.110;8.750;2024-01-07T09:27:39;11.23;;;5.43;;
82727;SDS011;72459;50.110;8.750;2024-01-07T09:30:05;8.73;;;5.00;;
82727;SDS011;72459;50.110;8.750;2024-01-07T09:32:31;8.82;;;4.78;;
82727;SDS011;72459;50.110;8.750;2024-01-07T09:34:56;8.77;;;5.00;;
82727;SDS011;72459;50.110;8.750;2024-01-07T09:37:23;7.80;;;3.00;;
82727;SDS011;72459;50.110;8.750;2024-01-07T09:39:48;4.55;;;3.05;;
82727;SDS011;72459;50.110;8.750;2024-01-07T09:42:19;4.85;;;3.22;;
82727;SDS011;72459;50.110;8.750;2024-01-07T09:44:44;5.38;;;3.40;;
82727;SDS011;72459;50.110;8.750;2024-01-07T09:47:11;6.30;;;3.63;;
82727;SDS011;72459;50.110;8.750;2024-01-07T09:49:38;5.15;;;3.05;;
82727;SDS011;72459;50.110;8.750;2024-01-07T09:52:04;5.45;;;3.30;;
82727;SDS011;72459;50.110;8.750;2024-01-07T09:54:30;5.93;;;3.50;;
82727;SDS011;72459;50.110;8.750;2024-01-07T09:57:00;6.13;;;3.60;;
82727;SDS011;72459;50.110;8.750;2024-01-07T09:59:30;5.03;;;3.10;;
82727;SDS011;72459;50.110;8.750;2024-01-07T10:01:56;7.50;;;4.03;;
82727;SDS011;72459;50.110;8.750;2024-01-07T10:04:25;5.93;;;3.80;;
82727;SDS011;72459;50.110;8.750;2024-01-07T10:06:52;7.57;;;4.00;;
82727;SDS011;72459;50.110;8.750;2024-01-07T10:09:19;6.90;;;3.90;;
82727;SDS011;72459;50.110;8.750;2024-01-07T10:11:46;7.57;;;3.83;;
82727;SDS011;72459;50.110;8.750;2024-01-07T10:14:12;8.18;;;4.60;;
82727;SDS011;72459;50.110;8.750;2024-01-07T10:16:40;6.95;;;4.13;;
82727;SDS011;72459;50.110;8.750;2024-01-07T10:19:05;6.13;;;3.95;;
82727;SDS011;72459;50.110;8.750;2024-01-07T10:21:32;5.28;;;3.70;;
82727;SDS011;72459;50.110;8.750;2024-01-07T10:24:19;6.15;;;4.05;;
82727;SDS011;72459;50.110;8.750;2024-01-07T10:26:44;7.60;;;4.00;;
82727;SDS011;72459;50.110;8.750;2024-01-07T10:29:09;8.33;;;4.13;;
82727;SDS011;72459;50.110;8.750;2024-01-07T10:31:35;5.75;;;4.03;;
82727;SDS011;72459;50.110;8.750;2024-01-07T10:34:00;6.57;;;4.13;;
82727;SDS011;72459;50.110;8.750;2024-01-07T10:36:25;6.82;;;3.95;;
82727;SDS011;72459;50.110;8.750;2024-01-07T10:38:51;7.35;;;3.80;;
82727;SDS011;72459;50.110;8.750;2024-01-07T10:41:20;8.35;;;3.80;;
82727;SDS011;72459;50.110;8.750;2024-01-07T10:43:52;7.78;;;4.40;;
82727;SDS011;72459;50.110;8.750;2024-01-07T10:46:17;6.53;;;3.60;;
82727;SDS011;72459;50.110;8.750;2024-01-07T10:48:49;7.18;;;4.15;;
82727;SDS011;72459;50.110;8.750;2024-01-07T10:51:19;6.65;;;4.03;;
82727;SDS011;72459;50.110;8.750;2024-01-07T10:53:51;8.40;;;4.80;;
82727;SDS011;72459;50.110;8.750;2024-01-07T10:56:24;7.75;;;4.38;;
82727;SDS011;72459;50.110;8.750;2024-01-07T10:58:54;7.82;;;4.70;;
82727;SDS011;72459;50.110;8.750;2024-01-07T11:01:21;6.68;;;3.67;;
82727;SDS011;72459;50.110;8.750;2024-01-07T11:08:58;7.35;;;4.80;;
82727;SDS011;72459;50.110;8.750;2024-01-07T11:11:46;10.52;;;4.95;;
82727;SDS011;72459;50.110;8.750;2024-01-07T11:17:00;8.38;;;4.47;;
82727;SDS011;72459;50.110;8.750;2024-01-07T11:19:27;6.95;;;4.40;;
82727;SDS011;72459;50.110;8.750;2024-01-07T11:21:53;9.55;;;4.35;;
82727;SDS011;72459;50.110;8.750;2024-01-07T11:27:13;6.63;;;2.20;;
82727;SDS011;72459;50.110;8.750;2024-01-07T11:29:40;7.13;;;3.95;;
82727;SDS011;72459;50.110;8.750;2024-01-07T11:32:05;7.28;;;3.97;;
82727;SDS011;72459;50.110;8.750;2024-01-07T11:34:41;8.00;;;4.13;;
82727;SDS011;72459;50.110;8.750;2024-01-07T11:37:14;8.98;;;3.70;;
82727;SDS011;72459;50.110;8.750;2024-01-07T11:39:43;5.60;;;2.60;;
82727;SDS011;72459;50.110;8.750;2024-01-07T11:42:12;7.55;;;3.67;;
82727;SDS011;72459;50.110;8.750;2024-01-07T11:44:37;5.18;;;2.97;;
82727;SDS011;72459;50.110;8.750;2024-01-07T11:47:10;6.13;;;2.97;;
82727;SDS011;72459;50.110;8.750;2024-01-07T11:49:36;6.07;;;3.43;;
82727;SDS011;72459;50.110;8.750;2024-01-07T11:52:01;5.35;;;2.35;;
82727;SDS011;72459;50.110;8.750;2024-01-07T11:54:29;8.27;;;2.97;;
82727;SDS011;72459;50.110;8.750;2024-01-07T11:56:54;5.03;;;3.13;;
82727;SDS011;72459;50.110;8.750;2024-01-07T11:59:20;7.47;;;3.83;;
82727;SDS011;72459;50.110;8.750;2024-01-07T12:01:45;6.83;;;4.37;;
82727;SDS011;72459;50.110;8.750;2024-01-07T12:04:10;6.70;;;3.17;;
82727;SDS011;72459;50.110;8.750;2024-01-07T12:06:37;5.85;;;2.70;;
82727;SDS011;72459;50.110;8.750;2024-01-07T12:09:04;7.35;;;3.22;;
82727;SDS011;72459;50.110;8.750;2024-01-07T12:11:30;7.90;;;4.35;;
82727;SDS011;72459;50.110;8.750;2024-01-07T12:13:56;6.63;;;3.00;;
82727;SDS011;72459;50.110;8.750;2024-01-07T12:16:22;5.88;;;3.03;;
82727;SDS011;72459;50.110;8.750;2024-01-07T12:18:48;6.38;;;3.70;;
82727;SDS011;72459;50.110;8.750;2024-01-07T12:21:18;8.60;;;4.68;;
82727;SDS011;72459;50.110;8.750;2024-01-07T12:23:47;8.73;;;4.43;;
82727;SDS011;72459;50.110;8.750;2024-01-07T12:26:15;7.40;;;3.92;;
82727;SDS011;72459;50.110;8.750;2024-01-07T12:28:41;7.47;;;3.97;;
82727;SDS011;72459;50.110;8.750;2024-01-07T12:31:07;8.35;;;4.53;;
82727;SDS011;72459;50.110;8.750;2024-01-07T12:33:34;10.05;;;4.45;;
82727;SDS011;72459;50.110;8.750;2024-01-07T12:36:02;7.05;;;4.28;;
82727;SDS011;72459;50.110;8.750;2024-01-07T12:38:28;6.70;;;3.85;;
82727;SDS011;72459;50.110;8.750;2024-01-07T12:40:54;6.13;;;3.85;;
82727;SDS011;72459;50.110;8.750;2024-01-07T12:43:20;9.80;;;4.82;;
82727;SDS011;72459;50.110;8.750;2024-01-07T12:45:47;9.05;;;4.28;;
82727;SDS011;72459;50.110;8.750;2024-01-07T12:48:12;7.88;;;3.97;;
82727;SDS011;72459;50.110;8.750;2024-01-07T12:50:38;7.00;;;4.17;;
82727;SDS011;72459;50.110;8.750;2024-01-07T12:53:03;7.22;;;3.67;;
82727;SDS011;72459;50.110;8.750;2024-01-07T12:55:29;6.00;;;3.60;;
82727;SDS011;72459;50.110;8.750;2024-01-07T12:57:55;7.50;;;3.80;;
82727;SDS011;72459;50.110;8.750;2024-01-07T13:00:21;6.85;;;3.17;;
82727;SDS011;72459;50.110;8.750;2024-01-07T13:02:47;9.25;;;4.45;;
82727;SDS011;72459;50.110;8.750;2024-01-07T13:05:13;6.50;;;3.60;;
82727;SDS011;72459;50.110;8.750;2024-01-07T13:07:39;7.13;;;4.00;;
82727;SDS011;72459;50.110;8.750;2024-01-07T13:10:04;7.22;;;3.90;;
82727;SDS011;72459;50.110;8.750;2024-01-07T13:12:31;6.25;;;3.65;;
82727;SDS011;72459;50.110;8.750;2024-01-07T13:14:56;5.80;;;3.55;;
82727;SDS011;72459;50.110;8.750;2024-01-07T13:17:22;4.40;;;2.40;;
82727;SDS011;72459;50.110;8.750;2024-01-07T13:19:48;5.18;;;2.85;;
82727;SDS011;72459;50.110;8.750;2024-01-07T13:22:13;7.07;;;3.30;;
82727;SDS011;72459;50.110;8.750;2024-01-07T13:24:39;3.92;;;2.50;;
82727;SDS011;72459;50.110;8.750;2024-01-07T13:27:05;5.22;;;2.92;;
82727;SDS011;72459;50.110;8.750;2024-01-07T13:29:33;5.28;;;3.22;;
82727;SDS011;72459;50.110;8.750;2024-01-07T13:31:58;4.03;;;2.65;;
82727;SDS011;72459;50.110;8.750;2024-01-07T13:34:24;4.22;;;2.30;;
82727;SDS011;72459;50.110;8.750;2024-01-07T13:36:49;5.05;;;2.40;;
82727;SDS011;72459;50.110;8.750;2024-01-07T13:39:16;5.18;;;2.50;;
82727;SDS011;72459;50.110;8.750;2024-01-07T13:41:42;5.90;;;3.20;;
82727;SDS011;72459;50.110;8.750;2024-01-07T13:44:09;6.63;;;3.28;;
82727;SDS011;72459;50.110;8.750;2024-01-07T13:46:43;3.67;;;2.38;;
82727;SDS011;72459;50.110;8.750;2024-01-07T13:49:09;8.07;;;3.80;;
82727;SDS011;72459;50.110;8.750;2024-01-07T13:51:35;6.43;;;2.85;;
82727;SDS011;72459;50.110;8.750;2024-01-07T13:54:02;7.13;;;3.75;;
82727;SDS011;72459;50.110;8.750;2024-01-07T13:56:28;5.18;;;2.78;;
82727;SDS011;72459;50.110;8.750;2024-01-07T13:58:54;7.55;;;4.10;;
82727;SDS011;72459;50.110;8.750;2024-01-07T14:01:19;5.05;;;2.95;;
82727;SDS011;72459;50.110;8.750;2024-01-07T14:03:45;8.52;;;3.70;;
82727;SDS011;72459;50.110;8.750;2024-01-07T14:06:10;4.53;;;2.90;;
82727;SDS011;72459;50.110;8.750;2024-01-07T14:08:36;4.85;;;2.78;;
82727;SDS011;72459;50.110;8.750;2024-01-07T14:11:01;4.78;;;2.83;;
82727;SDS011;72459;50.110;8.750;2024-01-07T14:13:28;5.72;;;2.00;;
82727;SDS011;72459;50.110;8.750;2024-01-07T14:15:53;6.05;;;3.03;;
82727;SDS011;72459;50.110;8.750;2024-01-07T14:18:20;6.65;;;3.33;;
82727;SDS011;72459;50.110;8.750;2024-01-07T14:20:47;6.20;;;3.15;;
82727;SDS011;72459;50.110;8.750;2024-01-07T14:23:13;6.50;;;3.28;;
82727;SDS011;72459;50.110;8.750;2024-01-07T14:25:38;5.77;;;3.00;;
82727;SDS011;72459;50.110;8.750;2024-01-07T14:28:05;5.78;;;2.90;;
82727;SDS011;72459;50.110;8.750;2024-01-07T14:30:31;5.00;;;2.70;;
82727;SDS011;72459;50.110;8.750;2024-01-07T14:32:56;7.03;;;3.10;;
82727;SDS011;72459;50.110;8.750;2024-01-07T14:35:22;7.65;;;3.20;;
82727;SDS011;72459;50.110;8.750;2024-01-07T14:37:50;6.40;;;2.95;;
82727;SDS011;72459;50.110;8.750;2024-01-07T14:40:17;5.32;;;3.17;;
82727;SDS011;72459;50.110;8.750;2024-01-07T14:42:43;5.78;;;3.10;;
82727;SDS011;72459;50.110;8.750;2024-01-07T14:45:08;4.72;;;2.60;;
82727;SDS011;72459;50.110;8.750;2024-01-07T14:47:34;4.35;;;2.45;;
82727;SDS011;72459;50.110;8.750;2024-01-07T14:50:00;3.97;;;2.13;;